Time;durP1;ratioP1;P1;durP2;ratioP2;P2;SDS_P1;SDS_P2;PMS_P1;PMS_P2;Temp;Humidity;BMP_temperature;BMP_pressure;BME280_temperature;BME280_humidity;BME280_pressure;Samples;Min_cycle;Max_cycle;Signal;HPM_P1;HPM_P2
2023/01/21 00:01:04;;;;;;;2.22;1.38;;;;;;;1.94;100.00;99216.19;6271108;28;20140;-83
2023/01/21 00:04:04;;;;;;;1.00;0.90;;;;;;;2.10;100.00;99222.41;6271112;28;20124;-86
2023/01/21 00:07:06;;;;;;;1.58;1.23;;;;;;;2.23;100.00;99243.34;6271092;28;20033;-82
2023/01/21 00:10:08;;;;;;;1.58;1.35;;;;;;;2.25;100.00;99226.09;6272195;28;20037;-86
2023/01/21 00:13:09;;;;;;;1.98;1.45;;;;;;;2.21;100.00;99221.97;6270429;28;20413;-82
2023/01/21 00:16:10;;;;;;;1.63;1.25;;;;;;;2.05;100.00;99221.72;6270793;28;20041;-82
2023/01/21 00:19:11;;;;;;;2.97;1.80;;;;;;;2.10;100.00;99232.69;6273576;28;20045;-81
2023/01/21 00:22:13;;;;;;;6.10;2.10;;;;;;;2.24;100.00;99241.59;6275085;28;20049;-81
2023/01/21 00:25:15;;;;;;;2.00;1.83;;;;;;;2.28;100.00;99238.81;6275695;28;20108;-82
2023/01/21 00:28:16;;;;;;;3.60;1.45;;;;;;;2.32;100.00;99236.97;6275172;28;20386;-86
2023/01/21 00:31:17;;;;;;;1.45;1.30;;;;;;;2.25;100.00;99244.13;6275465;28;20044;-82
2023/01/21 00:34:18;;;;;;;2.25;1.45;;;;;;;2.33;100.00;99243.81;6275874;28;20043;-85
2023/01/21 00:37:18;;;;;;;2.92;1.75;;;;;;;2.39;100.00;99246.16;6275571;28;20037;-86
2023/01/21 00:40:20;;;;;;;0.82;0.80;;;;;;;2.33;100.00;99246.38;6275730;28;20048;-86
2023/01/21 00:43:21;;;;;;;1.85;1.15;;;;;;;2.17;100.00;99249.56;6275611;28;20049;-86
2023/01/21 00:46:24;;;;;;;1.60;1.35;;;;;;;2.22;100.00;99257.94;6275397;28;20045;-82
2023/01/21 00:49:24;;;;;;;2.22;1.17;;;;;;;2.29;100.00;99248.25;6276532;28;20048;-82
2023/01/21 00:52:27;;;;;;;1.77;1.17;;;;;;;2.32;100.00;99249.84;6275096;28;20481;-86
2023/01/21 00:55:28;;;;;;;2.70;1.52;;;;;;;2.27;100.00;99249.22;6274932;28;20040;-83
2023/01/21 00:58:29;;;;;;;1.05;0.95;;;;;;;2.35;100.00;99260.03;6274803;28;20644;-82
2023/01/21 01:01:36;;;;;;;5.78;1.80;;;;;;;2.31;100.00;99255.91;6276020;28;20037;-86
2023/01/21 01:04:39;;;;;;;2.83;1.50;;;;;;;2.38;100.00;99270.19;6275142;28;20048;-86
2023/01/21 01:07:42;;;;;;;2.05;1.20;;;;;;;2.34;100.00;99264.31;6275955;28;20465;-82
2023/01/21 01:10:43;;;;;;;1.20;0.63;;;;;;;2.33;100.00;99279.84;6274774;28;20041;-86
2023/01/21 01:13:46;;;;;;;1.52;1.30;;;;;;;2.36;100.00;99272.00;6274533;28;20440;-82
2023/01/21 01:16:48;;;;;;;1.77;0.90;;;;;;;2.31;100.00;99276.50;6274598;28;20056;-83
2023/01/21 01:19:48;;;;;;;0.85;0.68;;;;;;;2.31;100.00;99279.91;6274495;28;20041;-83
2023/01/21 01:22:49;;;;;;;1.90;1.48;;;;;;;2.29;100.00;99281.72;6275585;28;20037;-86
2023/01/21 01:26:07;;;;;;;0.95;0.93;;;;;;;2.39;100.00;99279.63;6275459;28;20098;-82
2023/01/21 01:29:14;;;;;;;1.70;1.33;;;;;;;2.36;100.00;99284.88;6274330;28;20086;-81
2023/01/21 01:32:15;;;;;;;0.43;0.43;;;;;;;2.29;100.00;99268.00;6275319;28;20067;-82
2023/01/21 01:35:16;;;;;;;1.20;1.00;;;;;;;2.31;100.00;99285.06;6274320;28;20660;-86
2023/01/21 01:38:21;;;;;;;1.27;1.17;;;;;;;2.27;100.00;99303.28;6275214;28;20041;-86
2023/01/21 01:41:28;;;;;;;3.03;1.15;;;;;;;2.28;100.00;99284.34;6274797;28;20386;-86
2023/01/21 01:44:55;;;;;;;1.08;0.80;;;;;;;2.42;100.00;99307.81;6275120;28;20041;-86
2023/01/21 01:48:02;;;;;;;2.15;1.08;;;;;;;2.44;100.00;99306.00;6275052;28;20045;-82
2023/01/21 01:51:07;;;;;;;1.75;0.80;;;;;;;2.48;100.00;99317.03;6274921;28;20086;-85
2023/01/21 01:54:11;;;;;;;2.20;1.25;;;;;;;2.44;100.00;99324.03;6273595;28;20521;-82
2023/01/21 01:57:19;;;;;;;1.10;0.65;;;;;;;2.35;100.00;99314.94;6273706;28;20049;-86
2023/01/21 02:00:20;;;;;;;2.83;1.20;;;;;;;2.27;100.00;99311.81;6273227;28;20044;-85
2023/01/21 02:06:44;;;;;;;1.20;0.90;;;;;;;1.95;100.00;99307.91;6274567;28;20033;-86
2023/01/21 02:09:46;;;;;;;0.65;0.50;;;;;;;1.98;100.00;99308.63;6274662;28;20129;-82
2023/01/21 02:12:46;;;;;;;1.58;0.95;;;;;;;2.01;100.00;99317.94;6274540;28;20041;-85
2023/01/21 02:16:22;;;;;;;1.30;1.02;;;;;;;2.01;100.00;99313.63;6274666;28;20064;-82
2023/01/21 02:19:57;;;;;;;0.73;0.70;;;;;;;2.09;100.00;99308.22;6258706;28;20053;-82
2023/01/21 02:23:00;;;;;;;3.25;1.02;;;;;;;1.91;100.00;99312.31;6273102;28;20102;-82
2023/01/21 02:26:22;;;;;;;0.43;0.43;;;;;;;1.91;100.00;99309.72;6272576;28;20037;-86
2023/01/21 02:29:44;;;;;;;0.77;0.55;;;;;;;1.89;100.00;99306.38;6273521;28;20088;-86
2023/01/21 02:33:13;;;;;;;0.95;0.90;;;;;;;1.84;100.00;99304.91;6274121;28;20037;-86
2023/01/21 02:36:44;;;;;;;1.17;1.08;;;;;;;1.94;100.00;99307.06;6274218;28;20045;-82
2023/01/21 02:40:08;;;;;;;2.80;0.65;;;;;;;1.92;100.00;99301.13;6272870;28;20037;-82
2023/01/21 02:43:11;;;;;;;2.00;0.57;;;;;;;1.96;100.00;99307.84;6272326;28;20114;-86
2023/01/21 02:46:20;;;;;;;2.33;1.13;;;;;;;1.90;100.00;99307.25;6272416;28;20045;-85
2023/01/21 02:49:28;;;;;;;1.77;0.98;;;;;;;1.95;100.00;99303.56;6273574;28;20554;-85
2023/01/21 02:52:29;;;;;;;0.90;0.57;;;;;;;1.81;100.00;99286.09;6272299;28;20091;-86
2023/01/21 02:55:34;;;;;;;1.00;0.70;;;;;;;2.06;100.00;99318.63;6272188;28;20045;-86
2023/01/21 02:58:40;;;;;;;0.70;0.70;;;;;;;2.03;100.00;99303.28;6272070;28;20041;-86
2023/01/21 03:01:43;;;;;;;1.42;0.88;;;;;;;2.09;100.00;99315.09;6272226;28;20124;-86
2023/01/21 03:04:56;;;;;;;1.75;0.75;;;;;;;2.15;100.00;99320.00;6271664;28;20473;-82
2023/01/21 03:08:00;;;;;;;2.58;0.98;;;;;;;2.18;100.00;99332.75;6271677;28;20033;-82
2023/01/21 03:11:03;;;;;;;1.13;0.95;;;;;;;2.04;100.00;99333.28;6272028;28;20052;-85
2023/01/21 03:17:40;;;;;;;1.27;1.17;;;;;;;1.97;100.00;99337.81;6273276;28;20103;-85
2023/01/21 03:20:44;;;;;;;0.70;0.70;;;;;;;2.00;100.00;99331.72;6272160;28;20485;-81
2023/01/21 03:23:48;;;;;;;4.32;1.15;;;;;;;1.83;100.00;99321.22;6271862;28;20043;-86
2023/01/21 03:26:52;;;;;;;2.60;1.30;;;;;;;2.00;100.00;99332.56;6271813;28;20057;-85
2023/01/21 03:29:57;;;;;;;2.45;1.45;;;;;;;2.04;100.00;99335.00;6271825;28;20041;-81
2023/01/21 03:33:00;;;;;;;1.42;1.33;;;;;;;1.84;100.00;99335.75;6272852;28;20147;-82
2023/01/21 03:36:07;;;;;;;1.15;0.82;;;;;;;1.83;100.00;99347.75;6271455;28;20196;-85
2023/01/21 03:39:20;;;;;;;1.83;1.58;;;;;;;1.88;100.00;99350.19;6271950;28;20045;-82
2023/01/21 03:42:21;;;;;;;;;;;;;;;1.89;100.00;99354.44;6273521;28;20056;-82
2023/01/21 03:45:33;;;;;;;1.15;1.08;;;;;;;1.79;100.00;99353.91;6272026;28;19960;-82
2023/01/21 03:48:47;;;;;;;2.10;1.30;;;;;;;1.78;100.00;99365.13;6272908;28;20045;-82
2023/01/21 03:51:52;;;;;;;1.90;1.00;;;;;;;1.77;100.00;99359.13;6272766;28;20278;-83
2023/01/21 03:54:53;;;;;;;3.45;1.33;;;;;;;1.55;100.00;99363.38;6271722;28;20543;-86
2023/01/21 03:57:54;;;;;;;5.50;1.58;;;;;;;1.69;100.00;99361.16;6271588;28;20044;-83
2023/01/21 04:00:56;;;;;;;2.20;1.52;;;;;;;1.64;100.00;99354.47;6271038;28;20045;-86
2023/01/21 04:03:56;;;;;;;1.40;1.30;;;;;;;1.72;100.00;99361.03;6271359;28;20061;-86
2023/01/21 04:06:57;;;;;;;2.63;1.48;;;;;;;1.77;100.00;99371.13;6272309;28;20047;-82
2023/01/21 04:09:58;;;;;;;1.50;1.30;;;;;;;1.75;100.00;99365.22;6272106;28;20048;-82
2023/01/21 04:12:59;;;;;;;2.53;1.50;;;;;;;1.63;100.00;99379.38;6272353;28;20048;-86
2023/01/21 04:16:00;;;;;;;1.60;1.30;;;;;;;1.63;100.00;99381.94;6272193;28;20098;-86
2023/01/21 04:19:04;;;;;;;4.38;1.25;;;;;;;1.65;100.00;99380.16;6271392;28;20542;-82
2023/01/21 04:22:07;;;;;;;3.05;1.65;;;;;;;1.78;100.00;99386.53;6272126;28;20044;-86
2023/01/21 04:25:07;;;;;;;5.13;1.63;;;;;;;1.68;100.00;99374.06;6270782;28;20494;-86
2023/01/21 04:28:13;;;;;;;1.80;1.15;;;;;;;1.73;100.00;99397.88;6270846;28;20048;-82
2023/01/21 04:31:16;;;;;;;1.20;0.60;;;;;;;1.77;100.00;99392.56;6270772;28;20124;-83
2023/01/21 04:34:19;;;;;;;1.88;1.15;;;;;;;1.56;100.00;99396.72;6270300;28;20041;-83
2023/01/21 04:37:20;;;;;;;2.75;1.45;;;;;;;1.55;100.00;99389.06;6270161;28;20041;-82
2023/01/21 04:40:22;;;;;;;2.55;1.23;;;;;;;1.60;100.00;99385.44;6270272;28;20045;-82
2023/01/21 04:43:23;;;;;;;1.02;0.90;;;;;;;1.68;100.00;99410.06;6270975;28;20037;-82
2023/01/21 04:46:23;;;;;;;1.92;1.30;;;;;;;1.53;100.00;99390.88;6270176;28;20052;-86
2023/01/21 04:49:24;;;;;;;4.40;1.45;;;;;;;1.54;100.00;99406.22;6271181;28;20068;-82
2023/01/21 04:52:25;;;;;;;1.52;0.90;;;;;;;1.61;100.00;99423.13;6269732;28;20123;-82
2023/01/21 04:55:26;;;;;;;1.25;1.02;;;;;;;1.49;100.00;99425.28;6269731;28;20041;-82
2023/01/21 04:58:30;;;;;;;1.08;0.50;;;;;;;1.65;100.00;99448.72;6269937;28;20080;-82
2023/01/21 05:01:30;;;;;;;2.40;1.38;;;;;;;1.57;100.00;99438.72;6270746;28;20485;-82
2023/01/21 05:04:31;;;;;;;4.07;1.50;;;;;;;1.63;100.00;99459.09;6270278;28;20045;-82
2023/01/21 05:07:35;;;;;;;2.70;1.48;;;;;;;1.56;100.00;99471.28;6274070;28;20041;-82
2023/01/21 05:10:36;;;;;;;5.07;1.67;;;;;;;1.72;100.00;99465.66;6274367;28;20041;-82
2023/01/21 05:13:36;;;;;;;2.85;1.55;;;;;;;1.63;100.00;99478.81;6273953;28;20087;-86
2023/01/21 05:16:39;;;;;;;6.32;1.65;;;;;;;1.60;100.00;99485.72;6274113;28;20041;-86
2023/01/21 05:19:40;;;;;;;2.15;1.80;;;;;;;1.60;100.00;99478.00;6274359;28;20045;-82
2023/01/21 05:22:45;;;;;;;2.38;1.65;;;;;;;1.68;100.00;99482.91;6273852;28;20079;-86
2023/01/21 05:25:47;;;;;;;5.43;1.58;;;;;;;1.76;100.00;99483.47;6273681;28;20052;-82
2023/01/21 05:28:50;;;;;;;2.15;1.33;;;;;;;1.76;100.00;99490.38;6273472;28;20039;-86
2023/01/21 05:31:53;;;;;;;1.92;1.33;;;;;;;1.66;100.00;99478.72;6273595;28;20037;-82
2023/01/21 05:35:00;;;;;;;2.05;1.67;;;;;;;1.79;100.00;99485.97;6273530;28;20045;-86
2023/01/21 05:38:01;;;;;;;3.45;1.63;;;;;;;1.90;100.00;99497.63;6274844;28;20049;-86
2023/01/21 05:41:03;;;;;;;2.30;1.45;;;;;;;1.84;100.00;99488.38;6273507;28;20040;-82
2023/01/21 05:44:03;;;;;;;8.73;2.25;;;;;;;1.85;100.00;99491.78;6273372;28;20040;-82
2023/01/21 05:47:07;;;;;;;2.45;1.70;;;;;;;1.93;100.00;99498.34;6273326;28;20047;-82
2023/01/21 05:50:11;;;;;;;4.55;2.25;;;;;;;1.94;100.00;99501.78;6273147;28;20036;-82
2023/01/21 05:53:13;;;;;;;3.10;1.88;;;;;;;1.78;100.00;99502.28;6272876;28;20053;-82
2023/01/21 05:56:13;;;;;;;1.92;1.27;;;;;;;1.94;100.00;99517.22;6273405;28;20044;-82
2023/01/21 05:59:16;;;;;;;3.17;1.85;;;;;;;1.99;100.00;99515.31;6272995;28;20049;-87
2023/01/21 06:02:17;;;;;;;3.22;1.80;;;;;;;2.08;100.00;99532.16;6272910;28;20045;-82
2023/01/21 06:05:18;;;;;;;5.93;2.90;;;;;;;1.95;100.00;99532.56;6272835;28;20068;-82
2023/01/21 06:08:19;;;;;;;2.25;1.55;;;;;;;1.97;100.00;99528.22;6272635;28;20045;-86
2023/01/21 06:11:20;;;;;;;4.45;1.75;;;;;;;1.96;100.00;99533.44;6274002;28;20065;-82
2023/01/21 06:14:21;;;;;;;3.33;1.90;;;;;;;1.99;100.00;99541.03;6272969;28;20036;-86
2023/01/21 06:17:25;;;;;;;5.43;3.10;;;;;;;2.05;100.00;99545.97;6271989;28;20120;-86
2023/01/21 06:20:29;;;;;;;2.30;1.58;;;;;;;2.07;100.00;99549.34;6272335;28;20040;-82
2023/01/21 06:23:30;;;;;;;2.13;1.70;;;;;;;2.06;100.00;99550.25;6272401;28;20070;-81
2023/01/21 06:26:32;;;;;;;3.22;2.25;;;;;;;1.98;100.00;99547.94;6273192;28;20524;-86
2023/01/21 06:29:33;;;;;;;4.68;2.63;;;;;;;2.18;100.00;99559.25;6273532;28;20041;-86
2023/01/21 06:32:34;;;;;;;5.57;3.13;;;;;;;2.21;100.00;99554.03;6273563;28;20371;-86
2023/01/21 06:35:36;;;;;;;3.38;2.03;;;;;;;2.19;100.00;99569.50;6271831;28;20083;-82
2023/01/21 06:38:39;;;;;;;2.73;1.87;;;;;;;2.25;100.00;99568.47;6272122;28;20051;-86
2023/01/21 06:41:40;;;;;;;5.70;2.20;;;;;;;2.26;100.00;99559.84;6273168;28;20412;-82
2023/01/21 06:44:41;;;;;;;4.47;2.05;;;;;;;2.31;100.00;99578.56;6271935;28;20040;-82
2023/01/21 06:47:45;;;;;;;5.18;2.13;;;;;;;2.25;100.00;99583.91;6272904;28;20443;-81
2023/01/21 06:50:46;;;;;;;1.98;1.40;;;;;;;2.24;100.00;99578.81;6272874;28;20052;-85
2023/01/21 06:53:47;;;;;;;2.70;1.77;;;;;;;2.37;100.00;99586.06;6272485;28;20080;-86
2023/01/21 06:56:48;;;;;;;3.45;2.08;;;;;;;2.26;100.00;99585.56;6271745;28;20043;-82
2023/01/21 06:59:49;;;;;;;5.57;1.30;;;;;;;2.30;100.00;99594.03;6271457;28;20063;-82
2023/01/21 07:02:55;;;;;;;4.28;1.95;;;;;;;2.32;100.00;99593.09;6271339;28;20494;-82
2023/01/21 07:05:58;;;;;;;5.15;3.03;;;;;;;2.42;100.00;99597.03;6271715;28;20033;-82
2023/01/21 07:08:59;;;;;;;1.80;1.58;;;;;;;2.35;100.00;99612.78;6271158;28;20554;-82
2023/01/21 07:12:00;;;;;;;2.65;1.63;;;;;;;2.39;100.00;99610.03;6271363;28;20041;-86
2023/01/21 07:15:01;;;;;;;7.28;3.45;;;;;;;2.41;100.00;99615.97;6272446;28;20041;-82
2023/01/21 07:18:01;;;;;;;4.18;2.38;;;;;;;2.34;100.00;99613.66;6271088;28;20517;-83
2023/01/21 07:21:05;;;;;;;4.57;2.38;;;;;;;2.40;100.00;99619.41;6270930;28;20486;-82
2023/01/21 07:24:07;;;;;;;2.78;1.80;;;;;;;2.40;100.00;99622.00;6270900;28;20045;-82
2023/01/21 07:27:11;;;;;;;2.33;1.50;;;;;;;2.40;100.00;99624.56;6270795;28;20041;-82
2023/01/21 07:30:19;;;;;;;4.00;2.30;;;;;;;2.43;100.00;99631.38;6270979;28;20041;-82
2023/01/21 07:33:19;;;;;;;4.75;2.50;;;;;;;2.41;100.00;99635.72;6270925;28;20114;-82
2023/01/21 07:36:20;;;;;;;4.65;2.17;;;;;;;2.34;100.00;99639.41;6270918;28;20478;-82
2023/01/21 07:39:21;;;;;;;6.05;2.47;;;;;;;2.34;100.00;99642.81;6270650;28;20412;-87
2023/01/21 07:42:22;;;;;;;5.28;3.17;;;;;;;2.34;100.00;99660.00;6271964;28;20049;-87
2023/01/21 07:45:23;;;;;;;4.30;2.65;;;;;;;2.29;100.00;99664.47;6270519;28;20041;-82
2023/01/21 07:48:24;;;;;;;6.43;3.22;;;;;;;2.31;100.00;99654.97;6270653;28;20041;-86
2023/01/21 07:51:25;;;;;;;8.60;4.93;;;;;;;2.17;100.00;99658.81;6270636;28;20044;-82
2023/01/21 07:54:26;;;;;;;5.18;3.10;;;;;;;2.32;100.00;99651.47;6270521;28;20515;-82
2023/01/21 07:57:27;;;;;;;11.93;5.35;;;;;;;2.27;100.00;99672.22;6270555;28;20041;-82
2023/01/21 08:00:28;;;;;;;13.80;7.10;;;;;;;2.30;100.00;99666.13;6270310;28;20061;-82
2023/01/21 08:03:29;;;;;;;7.13;4.88;;;;;;;2.33;100.00;99660.91;6270146;28;20416;-82
2023/01/21 08:06:30;;;;;;;8.80;5.35;;;;;;;2.56;100.00;99680.72;6270123;28;20094;-86
2023/01/21 08:09:31;;;;;;;11.45;3.53;;;;;;;2.68;100.00;99671.72;6271540;28;20037;-86
2023/01/21 08:12:32;;;;;;;18.02;5.40;;;;;;;2.71;100.00;99676.78;6270195;28;20052;-86
2023/01/21 08:15:32;;;;;;;20.45;9.35;;;;;;;2.73;100.00;99674.97;6270216;28;20048;-86
2023/01/21 08:18:36;;;;;;;12.90;6.47;;;;;;;2.56;100.00;99686.72;6271503;28;20052;-86
2023/01/21 08:21:37;;;;;;;7.97;3.10;;;;;;;2.52;100.00;99689.44;6271131;28;20037;-82
2023/01/21 08:24:38;;;;;;;9.23;3.65;;;;;;;2.56;100.00;99689.28;6270195;28;20124;-83
2023/01/21 08:27:39;;;;;;;5.03;3.35;;;;;;;2.58;100.00;99691.81;6271120;28;20037;-82
2023/01/21 08:30:40;;;;;;;11.10;4.40;;;;;;;2.52;100.00;99694.59;6270037;28;20405;-86
2023/01/21 08:33:41;;;;;;;7.72;3.22;;;;;;;2.50;100.00;99711.84;6269978;28;20500;-86
2023/01/21 08:36:41;;;;;;;7.53;2.85;;;;;;;2.45;100.00;99722.28;6270099;28;20041;-82
2023/01/21 08:39:42;;;;;;;12.80;3.42;;;;;;;2.46;100.00;99728.28;6270897;28;20519;-86
2023/01/21 08:42:43;;;;;;;6.40;4.15;;;;;;;2.41;100.00;99716.41;6274678;28;20045;-82
2023/01/21 08:45:44;;;;;;;10.05;3.47;;;;;;;2.40;100.00;99719.00;6276065;28;20037;-82
2023/01/21 08:48:45;;;;;;;6.35;3.13;;;;;;;2.44;100.00;99719.75;6275643;28;20036;-82
2023/01/21 08:51:46;;;;;;;5.25;3.42;;;;;;;2.65;100.00;99729.34;6274838;28;20076;-87
2023/01/21 08:54:47;;;;;;;7.45;4.88;;;;;;;2.73;100.00;99732.50;6274379;28;20140;-83
2023/01/21 08:57:50;;;;;;;18.95;6.22;;;;;;;2.72;100.00;99729.97;6275517;28;20041;-83
2023/01/21 09:00:51;;;;;;;9.32;4.15;;;;;;;2.71;100.00;99723.97;6275604;28;20155;-87
2023/01/21 09:03:59;;;;;;;9.23;4.90;;;;;;;2.77;100.00;99735.81;6275315;28;20045;-87
2023/01/21 09:07:00;;;;;;;10.50;3.88;;;;;;;2.88;100.00;99725.97;6274122;28;20041;-82
2023/01/21 09:10:02;;;;;;;5.07;3.70;;;;;;;2.83;100.00;99744.16;6274213;28;20076;-87
2023/01/21 09:13:07;;;;;;;;;;;;;;;2.91;100.00;99745.66;6274459;28;20041;-83
2023/01/21 09:16:12;;;;;;;4.90;2.95;;;;;;;3.01;100.00;99739.28;6273819;28;19967;-83
2023/01/21 09:19:15;;;;;;;10.10;3.85;;;;;;;2.97;100.00;99735.13;6273764;28;20473;-83
2023/01/21 09:22:16;;;;;;;7.47;3.90;;;;;;;3.11;100.00;99744.94;6273807;28;20033;-83
2023/01/21 09:25:17;;;;;;;5.78;3.75;;;;;;;3.14;100.00;99752.59;6274717;28;20068;-83
2023/01/21 09:28:19;;;;;;;3.65;2.75;;;;;;;3.01;100.00;99754.75;6274804;28;20048;-82
2023/01/21 09:31:22;;;;;;;8.85;4.38;;;;;;;2.92;100.00;99758.47;6273765;28;20485;-82
2023/01/21 09:34:25;;;;;;;3.80;2.90;;;;;;;2.85;100.00;99763.91;6273190;28;20049;-82
2023/01/21 09:37:26;;;;;;;10.18;4.28;;;;;;;2.81;100.00;99751.13;6274696;28;20449;-82
2023/01/21 09:40:27;;;;;;;8.32;4.32;;;;;;;2.85;100.00;99758.75;6274540;28;20041;-83
2023/01/21 09:43:37;;;;;;;7.53;4.25;;;;;;;2.83;100.00;99766.53;6273383;28;20091;-82
2023/01/21 09:46:57;;;;;;;7.18;3.00;;;;;;;2.97;100.00;99756.59;6273088;28;20041;-87
2023/01/21 09:50:05;;;;;;;6.45;3.20;;;;;;;2.71;100.00;99757.47;6273284;28;20048;-83
2023/01/21 09:53:25;;;;;;;7.80;3.33;;;;;;;2.81;100.00;99758.84;6273022;28;20076;-83
2023/01/21 09:56:34;;;;;;;11.55;4.35;;;;;;;2.91;100.00;99761.97;6272984;28;20041;-87
2023/01/21 09:59:41;;;;;;;8.32;4.75;;;;;;;2.95;100.00;99767.84;6274193;28;20041;-83
2023/01/21 10:03:11;;;;;;;5.72;3.72;;;;;;;2.93;100.00;99764.50;6274014;28;20390;-87
2023/01/21 10:06:27;;;;;;;8.70;4.13;;;;;;;2.99;100.00;99756.56;6273905;28;20044;-87
2023/01/21 10:09:42;;;;;;;3.85;2.60;;;;;;;3.08;100.00;99748.47;6272571;28;20047;-87
2023/01/21 10:13:03;;;;;;;6.45;3.92;;;;;;;2.99;100.00;99743.66;6273831;28;20045;-85
2023/01/21 10:16:34;;;;;;;7.30;4.05;;;;;;;3.20;100.00;99760.94;6273666;28;20041;-87
2023/01/21 10:19:46;;;;;;;7.78;4.03;;;;;;;3.17;100.00;99757.63;6273609;28;20047;-82
2023/01/21 10:22:53;;;;;;;16.83;5.07;;;;;;;3.37;100.00;99759.50;6273511;28;20040;-87
2023/01/21 10:25:56;;;;;;;5.45;3.50;;;;;;;3.32;100.00;99751.09;6272325;28;20401;-87
2023/01/21 10:28:58;;;;;;;6.25;4.40;;;;;;;3.19;100.00;99750.69;6272286;28;20432;-87
2023/01/21 10:32:06;;;;;;;11.93;5.63;;;;;;;3.25;100.00;99749.63;6272367;28;20095;-83
2023/01/21 10:35:18;;;;;;;11.13;4.53;;;;;;;3.19;100.00;99741.22;6272103;28;20041;-83
2023/01/21 10:38:26;;;;;;;8.05;4.63;;;;;;;3.08;100.00;99747.66;6273469;28;20068;-82
2023/01/21 10:41:33;;;;;;;6.78;3.03;;;;;;;3.02;100.00;99748.69;6271969;28;20052;-86
2023/01/21 10:44:59;;;;;;;7.50;4.20;;;;;;;2.90;100.00;99741.38;6273443;28;20049;-87
2023/01/21 10:48:18;;;;;;;14.38;4.22;;;;;;;3.35;100.00;99741.50;6271850;28;20040;-83
2023/01/21 10:51:37;;;;;;;4.10;2.75;;;;;;;3.42;100.00;99734.41;6271687;28;20045;-82
2023/01/21 10:55:13;;;;;;;6.00;3.30;;;;;;;3.46;100.00;99743.72;6271508;28;20060;-82
2023/01/21 10:58:36;;;;;;;5.70;3.08;;;;;;;3.57;100.00;99732.97;6268903;28;20140;-86
2023/01/21 11:01:51;;;;;;;7.60;3.03;;;;;;;3.47;100.00;99735.06;6271322;28;20052;-87
2023/01/21 11:04:57;;;;;;;5.80;3.33;;;;;;;3.48;100.00;99736.75;6270923;28;20451;-83
2023/01/21 11:07:58;;;;;;;4.53;3.33;;;;;;;3.39;100.00;99742.22;6271961;28;20397;-82
2023/01/21 11:11:00;;;;;;;4.68;3.05;;;;;;;3.16;100.00;99730.19;6271078;28;20048;-83
2023/01/21 11:14:04;;;;;;;9.77;3.38;;;;;;;3.08;100.00;99738.16;6272211;28;20247;-82
2023/01/21 11:17:05;;;;;;;9.55;3.55;;;;;;;3.27;100.00;99743.50;6270813;28;20518;-82
2023/01/21 11:20:19;;;;;;;6.95;3.58;;;;;;;3.32;100.00;99740.78;6272219;28;20045;-86
2023/01/21 11:23:35;;;;;;;4.60;2.67;;;;;;;3.26;100.00;99731.53;6270877;28;20099;-82
2023/01/21 11:26:36;;;;;;;6.82;3.20;;;;;;;3.46;100.00;99728.22;6270558;28;20112;-86
2023/01/21 11:29:39;;;;;;;8.23;4.00;;;;;;;3.47;100.00;99729.06;6270939;28;20476;-82
2023/01/21 11:32:40;;;;;;;13.95;4.03;;;;;;;3.75;100.00;99737.47;6270698;28;20037;-87
2023/01/21 11:35:41;;;;;;;6.93;4.03;;;;;;;3.86;100.00;99731.03;6271728;28;20083;-86
2023/01/21 11:38:45;;;;;;;8.55;4.88;;;;;;;4.01;100.00;99735.59;6270446;28;20048;-86
2023/01/21 11:41:52;;;;;;;8.68;3.22;;;;;;;3.83;100.00;99744.91;6270772;28;20060;-82
2023/01/21 11:44:54;;;;;;;6.93;3.25;;;;;;;3.50;100.00;99741.84;6271731;28;20045;-86
2023/01/21 11:47:58;;;;;;;7.97;4.03;;;;;;;3.43;100.00;99744.63;6271667;28;20393;-82
2023/01/21 11:51:06;;;;;;;15.43;5.28;;;;;;;3.55;100.00;99738.19;6271662;28;20114;-86
2023/01/21 11:54:14;;;;;;;8.23;4.22;;;;;;;3.35;100.00;99731.19;6271204;28;20068;-83
2023/01/21 11:57:23;;;;;;;5.90;3.47;;;;;;;3.29;100.00;99726.25;6270218;28;20063;-82
2023/01/21 12:00:26;;;;;;;3.80;2.10;;;;;;;3.51;100.00;99741.78;6270487;28;20048;-86
2023/01/21 12:03:36;;;;;;;5.10;3.38;;;;;;;3.34;100.00;99739.81;6270197;28;20040;-83
2023/01/21 12:06:45;;;;;;;7.68;2.70;;;;;;;3.28;100.00;99746.94;6271181;28;20401;-86
2023/01/21 12:09:58;;;;;;;7.47;2.17;;;;;;;3.31;100.00;99728.78;6271323;28;20041;-82
2023/01/21 12:13:05;;;;;;;;;;;;;;;3.43;100.00;99718.00;6270609;28;20508;-82
2023/01/21 12:16:36;;;;;;;5.53;2.85;;;;;;;3.68;100.00;99717.09;6274540;28;19928;-83
2023/01/21 12:19:52;;;;;;;3.90;2.75;;;;;;;4.03;100.00;99726.06;6275062;28;20040;-86
2023/01/21 12:23:22;;;;;;;9.55;3.35;;;;;;;4.16;100.00;99723.81;6274913;28;20044;-83
2023/01/21 12:26:40;;;;;;;7.18;3.40;;;;;;;4.07;100.00;99724.19;6223015;28;20064;-83
2023/01/21 12:30:05;;;;;;;4.78;2.75;;;;;;;3.75;100.00;99727.13;6274924;28;20382;-83
2023/01/21 12:33:17;;;;;;;5.05;3.15;;;;;;;3.56;100.00;99742.47;6274696;28;20068;-82
2023/01/21 12:36:25;;;;;;;3.35;2.50;;;;;;;3.46;100.00;99732.53;6274648;28;20463;-83
2023/01/21 12:39:31;;;;;;;4.43;2.92;;;;;;;3.53;100.00;99737.41;6274665;28;20065;-83
2023/01/21 12:42:36;;;;;;;3.95;2.50;;;;;;;3.30;100.00;99727.09;6274779;28;20037;-83
2023/01/21 12:45:45;;;;;;;7.97;3.50;;;;;;;3.45;100.00;99741.19;6274657;28;20493;-86
2023/01/21 12:49:00;;;;;;;3.75;2.50;;;;;;;3.42;100.00;99740.38;6274673;28;20037;-82
2023/01/21 12:52:10;;;;;;;3.60;2.28;;;;;;;3.26;100.00;99733.28;6275301;28;20083;-86
2023/01/21 12:55:23;;;;;;;5.53;4.10;;;;;;;3.22;100.00;99714.47;6275484;28;20677;-86
2023/01/21 12:58:29;;;;;;;4.85;2.58;;;;;;;3.26;100.00;99712.66;6275425;28;20047;-83
2023/01/21 13:02:04;;;;;;;4.35;2.92;;;;;;;3.28;100.00;99732.31;6275367;28;20064;-82
2023/01/21 13:05:16;;;;;;;4.07;3.10;;;;;;;3.14;100.00;99724.22;6275320;28;20477;-82
2023/01/21 13:08:30;;;;;;;3.67;2.75;;;;;;;3.25;100.00;99723.84;6274050;28;20045;-82
2023/01/21 13:11:46;;;;;;;5.82;2.88;;;;;;;3.16;100.00;99715.53;6275112;28;20044;-83
2023/01/21 13:15:15;;;;;;;5.25;2.53;;;;;;;3.18;100.00;99726.63;6275088;28;20041;-86
2023/01/21 13:18:34;;;;;;;5.32;2.38;;;;;;;3.25;100.00;99741.88;6268158;28;20139;-83
2023/01/21 13:21:42;;;;;;;12.00;2.20;;;;;;;3.30;100.00;99745.16;6273717;28;20504;-83
2023/01/21 13:24:54;;;;;;;10.10;3.08;;;;;;;3.30;100.00;99758.88;6274850;28;20556;-83
2023/01/21 13:27:59;;;;;;;6.75;3.33;;;;;;;3.39;100.00;99760.28;6274630;28;20061;-82
2023/01/21 13:31:31;;;;;;;7.55;3.20;;;;;;;3.52;100.00;99748.63;6274748;28;20075;-86
2023/01/21 13:34:58;;;;;;;4.30;2.67;;;;;;;3.53;100.00;99744.31;6274568;28;20485;-86
2023/01/21 13:38:18;;;;;;;2.53;2.30;;;;;;;3.58;100.00;99748.41;6273372;28;20045;-83
2023/01/21 13:42:17;;;;;;;7.68;2.15;;;;;;;3.62;100.00;99749.13;6273408;28;20048;-85
2023/01/21 13:45:28;;;;;;;2.88;2.20;;;;;;;3.45;100.00;99742.00;6203696;28;20061;-83
2023/01/21 13:48:48;;;;;;;4.25;2.35;;;;;;;3.52;100.00;99752.94;6273972;28;20482;-86
2023/01/21 13:52:02;;;;;;;6.03;3.55;;;;;;;3.37;100.00;99751.75;6273057;28;20052;-83
2023/01/21 13:55:21;;;;;;;4.15;2.65;;;;;;;3.64;100.00;99762.81;6274166;28;20048;-86
2023/01/21 13:58:46;;;;;;;4.55;3.08;;;;;;;3.63;100.00;99753.41;6273893;28;20045;-86
2023/01/21 14:01:56;;;;;;;4.28;2.42;;;;;;;3.57;100.00;99740.72;6274006;28;20485;-86
2023/01/21 14:05:06;;;;;;;5.20;2.33;;;;;;;3.52;100.00;99751.22;6272608;28;20352;-86
2023/01/21 14:08:11;;;;;;;2.15;1.40;;;;;;;3.36;100.00;99753.50;6272544;28;20060;-83
2023/01/21 14:11:25;;;;;;;7.70;3.55;;;;;;;3.38;100.00;99756.03;6272301;28;20048;-82
2023/01/21 14:14:47;;;;;;;4.18;2.47;;;;;;;3.36;100.00;99765.56;6273564;28;20103;-85
2023/01/21 14:17:59;;;;;;;3.50;2.35;;;;;;;3.54;100.00;99764.03;6272328;28;20559;-86
2023/01/21 14:21:28;;;;;;;6.22;3.00;;;;;;;3.43;100.00;99762.69;6272489;28;20040;-86
2023/01/21 14:24:48;;;;;;;6.65;2.47;;;;;;;3.38;100.00;99768.94;6272142;28;20037;-85
2023/01/21 14:28:10;;;;;;;4.22;2.45;;;;;;;3.28;100.00;99765.84;6271800;28;20052;-82
2023/01/21 14:31:25;;;;;;;7.43;2.70;;;;;;;3.39;100.00;99778.34;6271980;28;20036;-85
2023/01/21 14:34:33;;;;;;;7.30;3.55;;;;;;;3.27;100.00;99764.13;6273124;28;20485;-83
2023/01/21 14:37:52;;;;;;;5.55;3.17;;;;;;;3.32;100.00;99779.47;6271352;28;20044;-83
2023/01/21 14:41:07;;;;;;;8.35;3.03;;;;;;;3.32;100.00;99785.47;6271776;28;20041;-83
2023/01/21 14:44:35;;;;;;;4.70;3.03;;;;;;;3.33;100.00;99797.44;6272980;28;20052;-82
2023/01/21 14:47:57;;;;;;;5.88;3.03;;;;;;;3.29;100.00;99806.19;6272615;28;20044;-83